»·PEaware :: N131SP KPSC-KYKM

N131SP :: KPSC-KYKM

FLIGHT INFORMATION

Flight Status: Arrived
Operator: Privately registered:
United States
More flights under this callsign
Pilot: Matt S. (33258)
Aircraft: CESSNA 172 SKYHAWK
(C172)
More flights by this aircraft type
Origin: KPSC Tri-Cities
United States
Destination: KYKM Yakima Air Term/Mcallister
United States
More flights between these airports :: More routes between these airports
Route: PSC V204 MARRK
File this flight plan on PilotEdge
Remarks:
Altitude:
(Current/Filed)
6,000ft
Speed:
(Current/Filed)
105kts
Departed: 14-Jan-21 11:44 AM
Arrived: 14-Jan-21 12:30 PM
Distance/Time
Traveled:
62nm/0:46
Distance/Time
To Go:
Arrived

Flight Plot

Page will automatically refresh every two minutes.

Flight plan parsing failed; only flown route is shown


Map Options




Map Legend


Flown Route
Filed Route
Departure Airport
Arrival Airport
Navaid (VOR, NDB)
Fix

Horizontal Profiles

Position Reports

Time Latitude Longitude Heading Altitude Ground
Speed
14-Jan-21 11:28 46.260659 -119.104098 316 410ft 0kts
14-Jan-21 11:29 46.260659 -119.104098 316 410ft 0kts
14-Jan-21 11:30 46.260659 -119.104098 316 410ft 0kts
14-Jan-21 11:31 46.260659 -119.104098 316 410ft 0kts
14-Jan-21 11:32 46.260659 -119.104098 316 410ft 0kts
14-Jan-21 11:33 46.260659 -119.104098 316 410ft 0kts
14-Jan-21 11:34 46.260659 -119.104098 316 410ft 0kts
14-Jan-21 11:35 46.260659 -119.104098 316 410ft 0kts
14-Jan-21 11:36 46.260854 -119.104338 322 410ft 6kts
14-Jan-21 11:37 46.261395 -119.104892 307 410ft 0kts
14-Jan-21 11:38 46.261395 -119.104892 307 410ft 0kts
14-Jan-21 11:39 46.262963 -119.106623 340 410ft 23kts
14-Jan-21 11:40 46.268429 -119.108761 325 410ft 0kts
14-Jan-21 11:41 46.268429 -119.108761 325 410ft 0kts
14-Jan-21 11:42 46.268430 -119.108762 324 410ft 0kts
14-Jan-21 11:43 46.262642 -119.118348 222 682ft 76kts
14-Jan-21 11:44 46.246578 -119.137102 223 1829ft 75kts
14-Jan-21 11:45 46.229972 -119.155241 223 2879ft 76kts
14-Jan-21 11:46 46.212946 -119.173412 225 3867ft 76kts
14-Jan-21 11:47 46.195687 -119.191406 225 4791ft 77kts
14-Jan-21 11:48 46.189824 -119.211922 319 5660ft 62kts
14-Jan-21 11:49 46.207381 -119.228701 324 6000ft 93kts
14-Jan-21 11:50 46.229473 -119.249568 324 5998ft 94kts
14-Jan-21 11:51 46.250753 -119.269487 324 5999ft 89kts
14-Jan-21 11:53 46.271547 -119.288816 324 5999ft 88kts
14-Jan-21 11:54 46.292217 -119.307999 324 5999ft 88kts
14-Jan-21 11:55 46.312541 -119.328160 313 6000ft 90kts
14-Jan-21 11:56 46.324940 -119.360164 293 5999ft 92kts
14-Jan-21 11:57 46.333505 -119.395449 291 5999ft 92kts
14-Jan-21 11:58 46.341575 -119.430910 291 5999ft 92kts
14-Jan-21 11:59 46.349604 -119.466498 291 5999ft 92kts
14-Jan-21 12:00 46.357590 -119.501974 291 5999ft 92kts
14-Jan-21 12:01 46.365539 -119.537367 291 6025ft 91kts
14-Jan-21 12:02 46.373433 -119.572546 291 6026ft 92kts
14-Jan-21 12:03 46.381398 -119.608112 291 6025ft 92kts
14-Jan-21 12:04 46.389319 -119.643540 291 6026ft 92kts
14-Jan-21 12:05 46.397283 -119.679221 290 6028ft 93kts
14-Jan-21 12:06 46.405253 -119.714987 290 6028ft 93kts
14-Jan-21 12:07 46.413213 -119.750771 290 6028ft 93kts
14-Jan-21 12:08 46.421187 -119.786694 290 6025ft 93kts
14-Jan-21 12:09 46.429208 -119.822896 291 6021ft 94kts
14-Jan-21 12:09 46.435938 -119.853305 291 6017ft 95kts
14-Jan-21 12:11 46.445766 -119.896286 292 6020ft 96kts
14-Jan-21 12:11 46.452830 -119.927026 292 6018ft 97kts
14-Jan-21 12:12 46.459365 -119.965273 264 6014ft 103kts
14-Jan-21 12:13 46.446733 -120.007464 247 5091ft 116kts
14-Jan-21 12:14 46.435389 -120.045875 290 5007ft 97kts
14-Jan-21 12:15 46.449590 -120.079377 298 5009ft 100kts
14-Jan-21 12:16 46.460221 -120.117195 294 5009ft 101kts
14-Jan-21 12:17 46.470140 -120.154969 294 5008ft 98kts
14-Jan-21 12:18 46.480620 -120.194191 292 4438ft 111kts
14-Jan-21 12:19 46.490512 -120.234412 293 4008ft 98kts
14-Jan-21 12:20 46.499760 -120.271105 293 4008ft 95kts
14-Jan-21 12:21 46.508588 -120.305935 294 4007ft 87kts
14-Jan-21 12:22 46.516780 -120.338239 294 3822ft 79kts
14-Jan-21 12:23 46.524478 -120.368553 293 3415ft 82kts
14-Jan-21 12:24 46.532609 -120.400676 293 2962ft 88kts
14-Jan-21 12:25 46.541200 -120.434724 292 2471ft 91kts
14-Jan-21 12:26 46.549961 -120.469524 291 1971ft 92kts
14-Jan-21 12:27 46.558815 -120.504756 290 1470ft 93kts
14-Jan-21 12:28 46.565441 -120.531238 289 1077ft 62kts
14-Jan-21 12:29 46.568150 -120.540077 53 1063ft 10kts
14-Jan-21 12:30 46.569362 -120.541152 349 1066ft 11kts
14-Jan-21 12:31 46.570618 -120.542695 88 1069ft 0kts
14-Jan-21 12:32 46.570618 -120.542695 88 1069ft 0kts

Navigation Log

Ident Type
Flight plan parsing failed, navigation log unavailable